Time;durP1;ratioP1;P1;durP2;ratioP2;P2;SDS_P1;SDS_P2;PMS_P1;PMS_P2;Temp;Humidity;BMP_temperature;BMP_pressure;BME280_temperature;BME280_humidity;BME280_pressure;Samples;Min_cycle;Max_cycle;Signal;HPM_P1;HPM_P2
2021/12/29 00:02:19;;;;;;;0.10;0.10;;;5.80;99.90;;;;;;5139735;27;20277;-60
2021/12/29 00:04:45;;;;;;;0.97;0.07;;;5.90;99.90;;;;;;5143753;27;20219;-59
2021/12/29 00:07:10;;;;;;;0.33;0.23;;;5.80;99.90;;;;;;5141477;27;20224;-60
2021/12/29 00:09:39;;;;;;;0.10;0.10;;;5.90;99.90;;;;;;5143396;27;20184;-59
2021/12/29 00:12:09;;;;;;;2.47;1.90;;;5.80;99.90;;;;;;5108491;27;20307;-58
2021/12/29 00:14:36;;;;;;;0.10;0.10;;;5.90;99.90;;;;;;5106592;27;20276;-58
2021/12/29 00:17:03;;;;;;;0.00;0.00;;;6.00;99.90;;;;;;5109885;27;20557;-59
2021/12/29 00:19:29;;;;;;;0.10;0.10;;;5.90;99.90;;;;;;5105211;27;20191;-59
2021/12/29 00:21:55;;;;;;;0.20;0.20;;;6.00;99.90;;;;;;5143605;27;20279;-58
2021/12/29 00:24:21;;;;;;;0.20;0.20;;;6.10;99.90;;;;;;5106089;27;20241;-58
2021/12/29 00:26:47;;;;;;;1.23;0.43;;;6.20;99.90;;;;;;5108290;27;20269;-61
2021/12/29 00:29:14;;;;;;;0.30;0.20;;;6.20;99.90;;;;;;5142160;27;20192;-58
2021/12/29 00:31:40;;;;;;;0.20;0.20;;;6.10;99.90;;;;;;5141133;27;20207;-57
2021/12/29 00:34:06;;;;;;;17.90;11.13;;;6.20;99.90;;;;;;5114539;27;20180;-57
2021/12/29 00:36:32;;;;;;;1.50;0.43;;;6.20;99.90;;;;;;5132899;27;20179;-57
2021/12/29 00:38:58;;;;;;;0.20;0.20;;;6.20;99.90;;;;;;5117935;27;20191;-57
2021/12/29 00:41:24;;;;;;;1.60;0.10;;;6.30;99.90;;;;;;5107568;27;20169;-58
2021/12/29 00:43:49;;;;;;;2.07;0.27;;;6.30;99.90;;;;;;5108934;27;20184;-59
2021/12/29 00:46:17;;;;;;;0.10;0.10;;;6.30;99.90;;;;;;5106853;27;20181;-59
2021/12/29 00:48:45;;;;;;;0.40;0.30;;;6.30;99.90;;;;;;5107088;27;20179;-59
2021/12/29 00:51:12;;;;;;;0.30;0.30;;;6.30;99.90;;;;;;5108004;27;20168;-58
2021/12/29 00:53:38;;;;;;;0.20;0.20;;;6.30;99.90;;;;;;5104976;27;20188;-54
2021/12/29 00:56:05;;;;;;;0.10;0.10;;;6.40;99.90;;;;;;5108673;27;20221;-57
2021/12/29 00:58:31;;;;;;;0.87;0.20;;;6.40;99.90;;;;;;5104738;27;20173;-58
2021/12/29 01:00:58;;;;;;;1.13;0.40;;;6.40;99.90;;;;;;5108857;27;20500;-58
2021/12/29 01:03:24;;;;;;;0.40;0.40;;;6.40;99.90;;;;;;5105724;27;20213;-54
2021/12/29 01:05:51;;;;;;;0.30;0.30;;;6.50;99.90;;;;;;5107429;27;20204;-52
2021/12/29 01:08:17;;;;;;;0.37;0.37;;;6.50;99.90;;;;;;5112519;27;20168;-56
2021/12/29 01:10:44;;;;;;;0.10;0.10;;;6.50;99.90;;;;;;5114273;27;20615;-52
2021/12/29 01:13:11;;;;;;;0.20;0.10;;;6.60;99.90;;;;;;5117702;27;20203;-55
2021/12/29 01:16:15;;;;;;;0.20;0.20;;;6.60;99.90;;;;;;5114566;27;20245;-58
2021/12/29 01:18:43;;;;;;;0.00;0.00;;;6.50;99.90;;;;;;5134380;27;20191;-58
2021/12/29 01:21:09;;;;;;;0.23;0.23;;;6.50;99.90;;;;;;5115040;27;20192;-58
2021/12/29 01:23:35;;;;;;;1.17;0.50;;;6.50;99.90;;;;;;5114990;27;20179;-57
2021/12/29 01:26:02;;;;;;;0.30;0.20;;;6.60;99.90;;;;;;5115425;27;20207;-56
2021/12/29 01:28:27;;;;;;;0.20;0.20;;;6.60;99.90;;;;;;5113259;27;20260;-59
2021/12/29 01:30:54;;;;;;;0.30;0.20;;;6.70;99.90;;;;;;5117009;27;20183;-58
2021/12/29 01:33:20;;;;;;;0.17;0.17;;;6.70;99.90;;;;;;5113135;27;20250;-55
2021/12/29 01:35:45;;;;;;;3.20;0.33;;;6.70;99.90;;;;;;5118856;27;20190;-57
2021/12/29 01:38:11;;;;;;;0.30;0.30;;;6.70;99.90;;;;;;5114649;27;20169;-59
2021/12/29 01:40:39;;;;;;;0.77;0.20;;;6.80;99.90;;;;;;5116970;27;20183;-59
2021/12/29 01:43:08;;;;;;;1.43;0.53;;;6.80;99.90;;;;;;5114228;27;20184;-58
2021/12/29 01:45:35;;;;;;;4.23;0.30;;;6.90;99.90;;;;;;5115153;27;20182;-58
2021/12/29 01:48:03;;;;;;;1.60;0.33;;;6.90;99.90;;;;;;5115524;27;20256;-57
2021/12/29 01:50:31;;;;;;;0.20;0.20;;;6.90;99.90;;;;;;5112299;27;20245;-58
2021/12/29 01:53:02;;;;;;;0.20;0.20;;;6.90;99.90;;;;;;5115896;27;20204;-58
2021/12/29 01:55:31;;;;;;;0.20;0.20;;;6.90;99.90;;;;;;5116043;27;20240;-58
2021/12/29 01:57:57;;;;;;;3.80;0.50;;;6.90;99.90;;;;;;5115306;27;20180;-58
2021/12/29 02:00:26;;;;;;;0.53;0.30;;;6.90;99.90;;;;;;5117035;27;20182;-58
2021/12/29 02:02:51;;;;;;;0.10;0.10;;;7.00;99.90;;;;;;5112745;27;20188;-58
2021/12/29 02:05:17;;;;;;;0.10;0.10;;;6.90;99.90;;;;;;5118822;27;20279;-56
2021/12/29 02:07:44;;;;;;;0.87;0.20;;;6.90;99.90;;;;;;5113915;27;20268;-60
2021/12/29 02:10:12;;;;;;;0.20;0.20;;;7.00;99.90;;;;;;5116864;27;20180;-56
2021/12/29 02:12:38;;;;;;;0.30;0.30;;;7.00;99.90;;;;;;5115242;27;20204;-57
2021/12/29 02:15:09;;;;;;;0.20;0.20;;;6.90;99.90;;;;;;5115236;27;20180;-58
2021/12/29 02:17:35;;;;;;;0.57;0.57;;;6.90;99.90;;;;;;5113980;27;20213;-59
2021/12/29 02:20:04;;;;;;;0.83;0.07;;;7.00;99.90;;;;;;5115267;27;20189;-58
2021/12/29 02:22:40;;;;;;;2.87;0.30;;;6.90;99.90;;;;;;5116869;27;20176;-58
2021/12/29 02:25:53;;;;;;;0.00;0.00;;;6.90;99.90;;;;;;5125971;27;20251;-58
2021/12/29 02:27:55;;;;;;;0.00;0.00;;;6.90;99.90;;;;;;5147242;27;20212;-57
2021/12/29 02:30:24;;;;;;;0.00;0.00;;;6.90;99.90;;;;;;5117652;27;20209;-58
2021/12/29 02:32:55;;;;;;;0.00;0.00;;;7.00;99.90;;;;;;5128564;27;20239;-59
2021/12/29 02:35:22;;;;;;;0.00;0.00;;;7.00;99.90;;;;;;5121719;27;20176;-58
2021/12/29 02:37:48;;;;;;;0.00;0.00;;;7.00;99.90;;;;;;5113385;27;20195;-58
2021/12/29 02:40:15;;;;;;;0.00;0.00;;;7.00;99.90;;;;;;5121449;27;20183;-57
2021/12/29 02:42:42;;;;;;;0.00;0.00;;;7.00;99.90;;;;;;5117936;27;20184;-60
2021/12/29 02:45:21;;;;;;;4.13;2.00;;;7.00;99.90;;;;;;5134369;27;20209;-59
2021/12/29 02:47:48;;;;;;;0.00;0.00;;;7.00;99.90;;;;;;5141473;27;20208;-58
2021/12/29 02:50:15;;;;;;;0.00;0.00;;;7.00;99.90;;;;;;5117094;27;20173;-59
2021/12/29 02:52:43;;;;;;;0.00;0.00;;;7.00;99.90;;;;;;5118763;27;20216;-60
2021/12/29 02:55:10;;;;;;;0.00;0.00;;;6.90;99.90;;;;;;5115780;27;20220;-59
2021/12/29 02:57:35;;;;;;;0.00;0.00;;;6.90;99.90;;;;;;5120496;27;20175;-58
2021/12/29 03:00:03;;;;;;;0.00;0.00;;;7.00;99.90;;;;;;5115274;27;20188;-59
2021/12/29 03:02:28;;;;;;;0.00;0.00;;;7.00;99.90;;;;;;5118388;27;20208;-59
2021/12/29 03:04:58;;;;;;;0.00;0.00;;;7.00;99.90;;;;;;5118959;27;20222;-59
2021/12/29 03:07:23;;;;;;;0.00;0.00;;;7.00;99.90;;;;;;5119046;27;20183;-58
2021/12/29 03:09:49;;;;;;;0.00;0.00;;;7.00;99.90;;;;;;5119668;27;20181;-59
2021/12/29 03:12:15;;;;;;;0.00;0.00;;;7.00;99.90;;;;;;5116501;27;20218;-58
2021/12/29 03:14:56;;;;;;;0.00;0.00;;;7.00;99.90;;;;;;5127514;27;20183;-59
2021/12/29 03:17:22;;;;;;;0.00;0.00;;;7.10;99.90;;;;;;5128300;27;20188;-59
2021/12/29 03:19:48;;;;;;;0.00;0.00;;;7.10;99.90;;;;;;5131566;27;20320;-58
2021/12/29 03:22:14;;;;;;;0.00;0.00;;;7.20;99.90;;;;;;5128807;27;20240;-60
2021/12/29 03:24:40;;;;;;;0.00;0.00;;;7.20;99.90;;;;;;5129424;27;20171;-59
2021/12/29 03:27:07;;;;;;;0.00;0.00;;;7.20;99.90;;;;;;5131191;27;20180;-59
2021/12/29 03:29:32;;;;;;;0.00;0.00;;;7.20;99.90;;;;;;5127708;27;20196;-59
2021/12/29 03:32:05;;;;;;;0.00;0.00;;;7.20;99.90;;;;;;5131713;27;20211;-58
2021/12/29 03:34:31;;;;;;;0.00;0.00;;;7.20;99.90;;;;;;5127225;27;20184;-59
2021/12/29 03:36:57;;;;;;;0.00;0.00;;;7.20;99.90;;;;;;5130486;27;20216;-59
2021/12/29 03:39:24;;;;;;;0.00;0.00;;;7.30;99.90;;;;;;5128242;27;20213;-59
2021/12/29 03:41:49;;;;;;;0.60;0.60;;;7.40;99.90;;;;;;5129990;27;20190;-59
2021/12/29 03:44:15;;;;;;;0.10;0.10;;;7.30;99.90;;;;;;5129368;27;20176;-60
2021/12/29 03:46:41;;;;;;;0.00;0.00;;;7.40;99.90;;;;;;5128054;27;20180;-59
2021/12/29 03:49:07;;;;;;;0.00;0.00;;;7.50;99.90;;;;;;5130878;27;20192;-58
2021/12/29 03:51:32;;;;;;;0.00;0.00;;;7.40;99.90;;;;;;5126634;27;20222;-58
2021/12/29 03:53:58;;;;;;;0.00;0.00;;;7.40;99.90;;;;;;5129798;27;20253;-58
2021/12/29 03:56:24;;;;;;;0.10;0.10;;;7.30;99.90;;;;;;5127165;27;20187;-59
2021/12/29 03:58:50;;;;;;;0.00;0.00;;;7.40;99.90;;;;;;5129778;27;20172;-56
2021/12/29 04:01:16;;;;;;;0.00;0.00;;;7.40;99.90;;;;;;5128727;27;20267;-59
2021/12/29 04:03:45;;;;;;;0.00;0.00;;;7.50;99.90;;;;;;5128951;27;20188;-59
2021/12/29 04:06:13;;;;;;;0.00;0.00;;;7.50;99.90;;;;;;5130012;27;20198;-59
2021/12/29 04:08:39;;;;;;;0.00;0.00;;;7.50;99.90;;;;;;5126986;27;20187;-57
2021/12/29 04:11:05;;;;;;;0.00;0.00;;;7.60;99.90;;;;;;5131481;27;20184;-58
2021/12/29 04:13:30;;;;;;;0.00;0.00;;;7.60;99.90;;;;;;5126917;27;20521;-58
2021/12/29 04:15:57;;;;;;;0.00;0.00;;;7.60;99.90;;;;;;5130629;27;20270;-59
2021/12/29 04:18:26;;;;;;;0.00;0.00;;;7.50;99.90;;;;;;5127607;27;20188;-59
2021/12/29 04:20:57;;;;;;;0.00;0.00;;;7.50;99.90;;;;;;5127874;27;20184;-59
2021/12/29 04:23:27;;;;;;;0.00;0.00;;;7.60;99.90;;;;;;5128944;27;20187;-60
2021/12/29 04:25:54;;;;;;;0.00;0.00;;;7.60;99.90;;;;;;5126554;27;20190;-59
2021/12/29 04:28:23;;;;;;;0.00;0.00;;;7.60;99.90;;;;;;5130580;27;20188;-60
2021/12/29 04:30:50;;;;;;;0.00;0.00;;;7.50;99.90;;;;;;5126257;27;20184;-60
2021/12/29 04:33:19;;;;;;;0.00;0.00;;;7.60;99.90;;;;;;5129703;27;20223;-60
2021/12/29 04:35:46;;;;;;;0.00;0.00;;;7.60;99.90;;;;;;5127515;27;20203;-59
2021/12/29 04:38:12;;;;;;;0.00;0.00;;;7.70;99.90;;;;;;5128551;27;20180;-58
2021/12/29 04:40:38;;;;;;;0.20;0.20;;;7.70;99.90;;;;;;5129961;27;20248;-60
2021/12/29 04:43:04;;;;;;;0.00;0.00;;;7.70;99.90;;;;;;5126945;27;21241;-59
2021/12/29 04:45:31;;;;;;;0.00;0.00;;;7.70;99.90;;;;;;5129761;27;20191;-59
2021/12/29 04:47:57;;;;;;;0.00;0.00;;;7.70;99.90;;;;;;5126001;27;20275;-59
2021/12/29 04:53:00;;;;;;;0.00;0.00;;;7.80;99.90;;;;;;5142898;27;20264;-60
2021/12/29 04:55:27;;;;;;;0.00;0.00;;;7.80;99.90;;;;;;5127818;27;20230;-60
2021/12/29 04:57:53;;;;;;;0.10;0.10;;;7.80;99.90;;;;;;5128623;27;20191;-61
2021/12/29 05:00:24;;;;;;;0.00;0.00;;;7.80;99.90;;;;;;5127810;27;20208;-60
2021/12/29 05:02:51;;;;;;;0.20;0.20;;;7.70;99.90;;;;;;5130073;27;20230;-62
2021/12/29 05:05:28;;;;;;;0.83;0.40;;;7.70;99.90;;;;;;5126562;27;20187;-62
2021/12/29 05:10:38;;;;;;;0.00;0.00;;;7.80;99.90;;;;;;5145756;27;20183;-61
2021/12/29 05:13:04;;;;;;;2.90;0.30;;;7.70;99.90;;;;;;5126472;27;20219;-61
2021/12/29 05:15:30;;;;;;;0.10;0.10;;;7.70;99.90;;;;;;5128770;27;20194;-61
2021/12/29 05:17:58;;;;;;;0.00;0.00;;;7.70;99.90;;;;;;5125384;27;20191;-61
2021/12/29 05:20:26;;;;;;;0.00;0.00;;;7.70;99.90;;;;;;5129418;27;20639;-60
2021/12/29 05:22:52;;;;;;;0.10;0.10;;;7.70;99.90;;;;;;5125798;27;20217;-60
2021/12/29 05:25:18;;;;;;;0.00;0.00;;;7.70;99.90;;;;;;5128688;27;20192;-61
2021/12/29 05:27:43;;;;;;;0.00;0.00;;;7.70;99.90;;;;;;5126259;27;20180;-61
2021/12/29 05:30:10;;;;;;;0.00;0.00;;;7.70;99.90;;;;;;5127825;27;20206;-60
2021/12/29 05:32:36;;;;;;;0.00;0.00;;;7.70;99.90;;;;;;5127658;27;20207;-60
2021/12/29 05:35:02;;;;;;;0.00;0.00;;;7.70;99.90;;;;;;5125995;27;20191;-59
2021/12/29 05:37:28;;;;;;;0.40;0.40;;;7.70;99.90;;;;;;5129069;27;20180;-60
2021/12/29 05:39:53;;;;;;;0.00;0.00;;;7.70;99.90;;;;;;5125273;27;20183;-58
2021/12/29 05:42:19;;;;;;;1.00;0.73;;;7.70;99.90;;;;;;5128925;27;20202;-60
2021/12/29 05:44:45;;;;;;;0.00;0.00;;;7.60;99.90;;;;;;5124975;27;20279;-59
2021/12/29 05:47:11;;;;;;;0.00;0.00;;;7.70;99.90;;;;;;5127957;27;20272;-59
2021/12/29 05:49:36;;;;;;;0.00;0.00;;;7.70;99.90;;;;;;5127216;27;20187;-61
2021/12/29 05:52:02;;;;;;;0.00;0.00;;;7.60;99.90;;;;;;5126465;27;20240;-59
2021/12/29 05:54:28;;;;;;;0.00;0.00;;;7.60;99.90;;;;;;5128071;27;20219;-61
2021/12/29 05:56:54;;;;;;;0.00;0.00;;;7.60;99.90;;;;;;5124979;27;20191;-59
2021/12/29 05:59:20;;;;;;;2.33;0.83;;;7.60;99.90;;;;;;5128945;27;20191;-60
2021/12/29 06:01:46;;;;;;;0.00;0.00;;;7.60;99.90;;;;;;5126415;27;20183;-59
2021/12/29 06:04:12;;;;;;;0.00;0.00;;;7.70;99.90;;;;;;5132306;27;20184;-58
2021/12/29 06:06:38;;;;;;;0.00;0.00;;;7.80;99.90;;;;;;5129258;27;20191;-56
2021/12/29 06:09:05;;;;;;;0.00;0.00;;;7.80;99.90;;;;;;5131606;27;20180;-56
2021/12/29 06:11:31;;;;;;;0.00;0.00;;;7.80;99.90;;;;;;5131963;27;20311;-58
2021/12/29 06:13:56;;;;;;;0.00;0.00;;;7.90;99.90;;;;;;5129743;27;20274;-54
2021/12/29 06:16:22;;;;;;;0.00;0.00;;;7.90;99.90;;;;;;5132829;27;20195;-54
2021/12/29 06:22:11;;;;;;;0.00;0.00;;;7.80;99.90;;;;;;5149525;27;20699;-55
2021/12/29 06:24:39;;;;;;;0.00;0.00;;;7.80;99.90;;;;;;5132425;27;20215;-52
2021/12/29 06:27:05;;;;;;;0.00;0.00;;;7.80;99.90;;;;;;5130320;27;20192;-55
2021/12/29 06:29:31;;;;;;;0.00;0.00;;;7.80;99.90;;;;;;5133924;27;20187;-55
2021/12/29 06:31:56;;;;;;;0.00;0.00;;;7.80;99.90;;;;;;5130752;27;20211;-51
2021/12/29 06:34:22;;;;;;;0.00;0.00;;;7.80;99.90;;;;;;5133543;27;20187;-50
2021/12/29 06:36:48;;;;;;;0.00;0.00;;;7.80;99.90;;;;;;5130787;27;20183;-52
2021/12/29 06:39:14;;;;;;;0.00;0.00;;;7.90;99.90;;;;;;5132663;27;20286;-53
2021/12/29 06:41:40;;;;;;;0.00;0.00;;;7.90;99.90;;;;;;5132919;27;20180;-53
2021/12/29 06:44:07;;;;;;;0.00;0.00;;;7.90;99.90;;;;;;5131784;27;20187;-51
2021/12/29 06:46:34;;;;;;;0.00;0.00;;;7.90;99.90;;;;;;5133324;27;20172;-47
2021/12/29 06:49:01;;;;;;;0.00;0.00;;;7.90;99.90;;;;;;5128586;27;20188;-53
2021/12/29 06:51:26;;;;;;;0.00;0.00;;;8.00;99.90;;;;;;5132649;27;20188;-49
2021/12/29 06:53:52;;;;;;;0.00;0.00;;;8.00;99.90;;;;;;5128201;27;20252;-55
2021/12/29 06:56:19;;;;;;;0.00;0.00;;;7.90;99.90;;;;;;5131545;27;20221;-53
2021/12/29 06:58:44;;;;;;;0.00;0.00;;;8.00;99.90;;;;;;5130817;27;20202;-54
2021/12/29 07:01:12;;;;;;;0.33;0.33;;;8.00;99.90;;;;;;5131173;27;20192;-51
2021/12/29 07:03:38;;;;;;;0.00;0.00;;;8.00;99.90;;;;;;5132361;27;20180;-58
2021/12/29 07:06:04;;;;;;;0.00;0.00;;;8.00;99.90;;;;;;5129523;27;20190;-51
2021/12/29 07:08:30;;;;;;;0.00;0.00;;;8.00;99.90;;;;;;5132781;27;20175;-51
2021/12/29 07:10:56;;;;;;;0.00;0.00;;;8.00;99.90;;;;;;5129110;27;20240;-53
2021/12/29 07:13:22;;;;;;;0.00;0.00;;;8.00;99.90;;;;;;5131926;27;20219;-50
2021/12/29 07:15:48;;;;;;;0.00;0.00;;;8.00;99.90;;;;;;5129275;27;20255;-51
2021/12/29 07:18:14;;;;;;;0.00;0.00;;;8.00;99.90;;;;;;5131644;27;20215;-50
2021/12/29 07:20:40;;;;;;;0.00;0.00;;;8.00;99.90;;;;;;5131120;27;20325;-51
2021/12/29 07:23:06;;;;;;;0.00;0.00;;;8.10;99.90;;;;;;5130327;27;20180;-52
2021/12/29 07:25:32;;;;;;;0.00;0.00;;;8.00;99.90;;;;;;5132531;27;20176;-52
2021/12/29 07:27:57;;;;;;;0.00;0.00;;;8.00;99.90;;;;;;5127801;27;20208;-52
2021/12/29 07:30:23;;;;;;;0.30;0.30;;;8.00;99.90;;;;;;5131946;27;20234;-52
2021/12/29 07:32:49;;;;;;;0.00;0.00;;;8.10;99.90;;;;;;5128423;27;20220;-51
2021/12/29 07:35:15;;;;;;;0.00;0.00;;;8.10;99.90;;;;;;5131002;27;20201;-52
2021/12/29 07:37:41;;;;;;;0.43;0.43;;;8.10;99.90;;;;;;5128962;27;20188;-51
2021/12/29 07:40:08;;;;;;;0.00;0.00;;;8.10;99.90;;;;;;5130190;27;20183;-50
2021/12/29 07:42:36;;;;;;;0.00;0.00;;;8.10;99.90;;;;;;5131406;27;20176;-56
2021/12/29 07:45:06;;;;;;;0.00;0.00;;;8.10;99.90;;;;;;5127407;27;20209;-53
2021/12/29 07:47:33;;;;;;;0.00;0.00;;;8.10;99.90;;;;;;5131825;27;20188;-49
2021/12/29 07:49:59;;;;;;;0.00;0.00;;;8.20;99.90;;;;;;5128259;27;20180;-53
2021/12/29 07:52:25;;;;;;;0.00;0.00;;;8.10;99.90;;;;;;5131256;27;20211;-52
2021/12/29 07:54:50;;;;;;;0.00;0.00;;;8.20;99.90;;;;;;5128156;27;20279;-55
2021/12/29 07:57:16;;;;;;;0.00;0.00;;;8.20;99.90;;;;;;5131324;27;20267;-51
2021/12/29 07:59:42;;;;;;;0.00;0.00;;;8.30;99.90;;;;;;5130462;27;20280;-54
2021/12/29 08:02:14;;;;;;;0.00;0.00;;;8.30;99.90;;;;;;5128673;27;20191;-54
2021/12/29 08:04:41;;;;;;;0.00;0.00;;;8.30;99.90;;;;;;5128860;27;20168;-53
2021/12/29 08:07:07;;;;;;;0.00;0.00;;;8.30;99.90;;;;;;5113833;27;20183;-55
2021/12/29 08:09:32;;;;;;;0.00;0.00;;;8.30;99.90;;;;;;5117419;27;20164;-50
2021/12/29 08:11:58;;;;;;;0.00;0.00;;;8.30;99.90;;;;;;5106902;27;20209;-54
2021/12/29 08:14:24;;;;;;;0.00;0.00;;;8.30;99.90;;;;;;5111341;27;20177;-54
2021/12/29 08:16:50;;;;;;;0.00;0.00;;;8.30;99.90;;;;;;5128412;27;20179;-58
2021/12/29 08:19:16;;;;;;;0.00;0.00;;;8.30;99.90;;;;;;5115856;27;20172;-57
2021/12/29 08:21:42;;;;;;;0.77;0.77;;;8.40;99.90;;;;;;5132463;27;20168;-57
2021/12/29 08:24:08;;;;;;;0.00;0.00;;;8.40;99.90;;;;;;5119290;27;20271;-52
2021/12/29 08:26:34;;;;;;;0.00;0.00;;;8.50;99.90;;;;;;5118594;27;20248;-54
2021/12/29 08:29:01;;;;;;;0.00;0.00;;;8.50;99.90;;;;;;5116601;27;20259;-56
2021/12/29 08:31:27;;;;;;;0.00;0.00;;;8.50;99.90;;;;;;5116643;27;20183;-54
2021/12/29 08:33:54;;;;;;;0.00;0.00;;;8.50;99.90;;;;;;5118572;27;20172;-52
2021/12/29 08:36:20;;;;;;;0.00;0.00;;;8.50;99.90;;;;;;5117359;27;20168;-51
2021/12/29 08:38:47;;;;;;;0.20;0.07;;;8.50;99.90;;;;;;5116297;27;20227;-56
2021/12/29 08:41:13;;;;;;;0.10;0.10;;;8.60;99.90;;;;;;5107810;27;20189;-57
2021/12/29 08:43:39;;;;;;;0.10;0.10;;;8.50;99.90;;;;;;5119160;27;20188;-47
2021/12/29 08:46:06;;;;;;;0.10;0.10;;;8.60;99.90;;;;;;5108034;27;20180;-49
2021/12/29 08:48:31;;;;;;;0.10;0.10;;;8.60;99.90;;;;;;5131680;27;20180;-50
2021/12/29 08:50:59;;;;;;;0.20;0.20;;;8.60;99.90;;;;;;5114838;27;20173;-49
2021/12/29 08:53:26;;;;;;;0.30;0.30;;;8.60;99.90;;;;;;5117106;27;20209;-53
2021/12/29 08:55:55;;;;;;;0.10;0.10;;;8.60;99.90;;;;;;5130804;27;20224;-51
2021/12/29 08:58:24;;;;;;;0.40;0.20;;;8.70;99.90;;;;;;5118161;27;20219;-48
2021/12/29 09:00:51;;;;;;;0.63;0.63;;;8.80;99.90;;;;;;5120884;27;20267;-48
2021/12/29 09:03:18;;;;;;;0.13;0.13;;;8.80;99.90;;;;;;5116770;27;20180;-47
2021/12/29 09:05:43;;;;;;;0.30;0.30;;;8.80;99.90;;;;;;5110442;27;20185;-48
2021/12/29 09:08:09;;;;;;;0.10;0.10;;;8.80;99.90;;;;;;5106971;27;20243;-48
2021/12/29 09:10:36;;;;;;;0.10;0.10;;;8.80;99.90;;;;;;5106209;27;20188;-51
2021/12/29 09:13:04;;;;;;;0.20;0.20;;;8.70;99.90;;;;;;5107890;27;20208;-49
2021/12/29 09:15:30;;;;;;;0.10;0.10;;;8.80;99.90;;;;;;5108152;27;20181;-51
2021/12/29 09:17:56;;;;;;;0.10;0.10;;;8.80;99.90;;;;;;5108676;27;20184;-46
2021/12/29 09:20:27;;;;;;;1.53;0.10;;;8.80;99.90;;;;;;5104977;27;20184;-46
2021/12/29 09:23:00;;;;;;;0.00;0.00;;;8.80;99.90;;;;;;5110470;27;20188;-48
2021/12/29 09:25:27;;;;;;;0.10;0.10;;;8.80;99.90;;;;;;5107223;27;20270;-53
2021/12/29 09:27:53;;;;;;;0.77;0.20;;;8.90;99.90;;;;;;5109790;27;20180;-50
2021/12/29 09:30:26;;;;;;;0.00;0.00;;;9.00;99.90;;;;;;5103749;28;20185;-57
2021/12/29 09:32:53;;;;;;;0.37;0.10;;;9.00;99.90;;;;;;5086632;28;20224;-49
2021/12/29 09:35:20;;;;;;;0.00;0.00;;;9.00;99.90;;;;;;5089177;28;20274;-56
2021/12/29 09:37:47;;;;;;;0.10;0.10;;;9.00;99.90;;;;;;5088280;27;20195;-55
2021/12/29 09:40:15;;;;;;;0.10;0.10;;;9.10;99.90;;;;;;5107120;28;20230;-49
2021/12/29 09:42:41;;;;;;;0.13;0.10;;;9.10;99.90;;;;;;5105422;28;20913;-51
2021/12/29 09:45:08;;;;;;;0.67;0.20;;;9.10;99.90;;;;;;5108021;28;20249;-51
2021/12/29 09:47:35;;;;;;;0.10;0.10;;;9.00;99.90;;;;;;5106512;28;20212;-56
2021/12/29 09:50:05;;;;;;;0.77;0.20;;;9.00;99.90;;;;;;5106920;28;20297;-52
2021/12/29 09:52:33;;;;;;;0.10;0.10;;;8.80;99.90;;;;;;5107873;28;20222;-54
2021/12/29 09:55:04;;;;;;;0.67;0.30;;;8.70;99.90;;;;;;5138574;27;20244;-51
2021/12/29 09:57:31;;;;;;;0.10;0.10;;;8.60;99.90;;;;;;5108408;27;20201;-52
2021/12/29 09:59:58;;;;;;;0.10;0.10;;;8.50;99.90;;;;;;5105384;28;20688;-48
2021/12/29 10:02:24;;;;;;;0.20;0.20;;;8.50;99.90;;;;;;5108453;27;20259;-57
2021/12/29 10:04:50;;;;;;;0.20;0.20;;;8.40;99.90;;;;;;5106179;28;20223;-54
2021/12/29 10:07:19;;;;;;;0.20;0.20;;;8.40;99.90;;;;;;5142077;27;20275;-52
2021/12/29 10:09:45;;;;;;;0.20;0.20;;;8.40;99.90;;;;;;5108419;27;20272;-53
2021/12/29 10:12:19;;;;;;;0.37;0.33;;;8.40;99.90;;;;;;5106261;27;20216;-53
2021/12/29 10:14:56;;;;;;;0.27;0.27;;;8.50;99.90;;;;;;5108605;28;20188;-52
2021/12/29 10:17:28;;;;;;;0.17;0.17;;;8.50;99.90;;;;;;5105183;27;20277;-53
2021/12/29 10:20:20;;;;;;;0.97;0.20;;;8.50;99.90;;;;;;5107590;28;20215;-54
2021/12/29 10:22:57;;;;;;;1.20;0.27;;;8.50;99.90;;;;;;5137006;27;20196;-55
2021/12/29 10:25:24;;;;;;;0.13;0.13;;;8.60;99.90;;;;;;5103918;28;20180;-49
2021/12/29 10:27:51;;;;;;;0.10;0.10;;;8.60;99.90;;;;;;5142347;27;20275;-55
2021/12/29 10:30:20;;;;;;;0.30;0.20;;;8.70;99.90;;;;;;5104150;27;20223;-53
2021/12/29 10:32:47;;;;;;;0.27;0.07;;;8.80;99.90;;;;;;5141442;27;20231;-49
2021/12/29 10:35:28;;;;;;;0.30;0.30;;;9.00;99.90;;;;;;5139020;27;20192;-57
2021/12/29 10:38:08;;;;;;;0.80;0.60;;;9.00;99.90;;;;;;5104964;28;20206;-53
2021/12/29 10:40:34;;;;;;;0.10;0.10;;;9.10;99.90;;;;;;5107617;28;20241;-56
2021/12/29 10:43:01;;;;;;;0.10;0.10;;;9.10;99.90;;;;;;5103987;28;20184;-52
2021/12/29 10:45:37;;;;;;;0.10;0.10;;;9.00;99.90;;;;;;5107125;28;20230;-52
2021/12/29 10:48:18;;;;;;;0.10;0.10;;;9.00;99.90;;;;;;5106282;27;20192;-51
2021/12/29 10:51:14;;;;;;;0.10;0.10;;;9.10;99.90;;;;;;5096446;27;20245;-52
2021/12/29 10:53:40;;;;;;;0.60;0.60;;;9.00;99.90;;;;;;5048991;28;20218;-54
2021/12/29 10:56:17;;;;;;;0.00;0.00;;;9.00;99.90;;;;;;5077815;28;20368;-50
2021/12/29 10:58:42;;;;;;;0.83;0.27;;;9.10;99.90;;;;;;5081620;28;20229;-52
2021/12/29 11:01:11;;;;;;;0.20;0.10;;;9.10;99.90;;;;;;5028997;28;20270;-51
2021/12/29 11:03:48;;;;;;;0.20;0.20;;;9.20;99.90;;;;;;5080578;28;20270;-53
2021/12/29 11:06:17;;;;;;;1.17;0.70;;;9.10;99.90;;;;;;5081372;28;20198;-54
2021/12/29 11:08:58;;;;;;;0.67;0.30;;;9.20;99.90;;;;;;5061484;28;20206;-55
2021/12/29 11:11:32;;;;;;;0.30;0.10;;;9.00;99.90;;;;;;5065694;28;20190;-56
2021/12/29 11:14:16;;;;;;;0.20;0.20;;;9.00;99.90;;;;;;5044690;28;20216;-53
2021/12/29 11:16:45;;;;;;;0.47;0.47;;;9.30;99.90;;;;;;5047207;28;20227;-52
2021/12/29 11:19:11;;;;;;;0.13;0.13;;;9.20;99.90;;;;;;5064609;28;20193;-52
2021/12/29 11:21:40;;;;;;;0.10;0.10;;;9.40;99.90;;;;;;5044848;28;20191;-55
2021/12/29 11:24:23;;;;;;;0.10;0.10;;;9.40;99.90;;;;;;5048651;28;20198;-47
2021/12/29 11:26:50;;;;;;;0.10;0.10;;;9.50;99.90;;;;;;5045260;28;20193;-52
2021/12/29 11:29:18;;;;;;;0.10;0.10;;;9.60;99.90;;;;;;5038921;28;20201;-52
2021/12/29 11:31:47;;;;;;;0.47;0.10;;;9.60;99.90;;;;;;5087991;28;20217;-52
2021/12/29 11:34:17;;;;;;;0.53;0.10;;;9.40;99.90;;;;;;5088456;28;20224;-52
2021/12/29 11:36:44;;;;;;;0.20;0.13;;;9.40;99.90;;;;;;5090119;28;20205;-55
2021/12/29 11:39:10;;;;;;;0.67;0.10;;;9.30;99.90;;;;;;5120283;27;20197;-49
2021/12/29 11:41:36;;;;;;;0.40;0.40;;;9.20;99.90;;;;;;5100421;27;20180;-52
2021/12/29 11:44:02;;;;;;;1.27;0.20;;;9.00;99.90;;;;;;5107170;27;20259;-52
2021/12/29 11:46:27;;;;;;;0.10;0.10;;;9.10;99.90;;;;;;5109784;27;20291;-53
2021/12/29 11:48:54;;;;;;;0.13;0.13;;;9.00;99.90;;;;;;5107034;27;20188;-57
2021/12/29 11:51:35;;;;;;;1.17;0.17;;;9.00;99.90;;;;;;5107032;27;20185;-53
2021/12/29 11:54:13;;;;;;;0.20;0.20;;;9.00;99.90;;;;;;5108575;27;20180;-51
2021/12/29 11:56:41;;;;;;;0.27;0.27;;;9.00;99.90;;;;;;5120314;27;20180;-54
2021/12/29 11:59:07;;;;;;;0.50;0.20;;;9.00;99.90;;;;;;5108513;27;20204;-55
2021/12/29 12:01:33;;;;;;;0.30;0.30;;;9.10;99.90;;;;;;5106073;27;20169;-51
2021/12/29 12:04:05;;;;;;;0.20;0.20;;;9.10;99.90;;;;;;5108880;27;20207;-48
2021/12/29 12:06:33;;;;;;;0.10;0.10;;;9.20;99.90;;;;;;5106831;27;20184;-53
2021/12/29 12:09:07;;;;;;;0.20;0.20;;;9.30;99.90;;;;;;5106696;27;20253;-51
2021/12/29 12:11:35;;;;;;;0.20;0.20;;;9.40;99.90;;;;;;5110011;27;20252;-53
2021/12/29 12:14:03;;;;;;;0.87;0.10;;;9.50;99.90;;;;;;5105985;27;20196;-48
2021/12/29 12:16:28;;;;;;;0.10;0.10;;;9.60;99.90;;;;;;5109835;27;20184;-52
2021/12/29 12:18:57;;;;;;;0.17;0.10;;;9.70;99.90;;;;;;5105862;27;20189;-50
2021/12/29 12:21:32;;;;;;;0.20;0.20;;;9.60;99.90;;;;;;5108591;27;20208;-47
2021/12/29 12:24:19;;;;;;;0.00;0.00;;;9.70;99.90;;;;;;5108208;27;20180;-51
2021/12/29 12:26:54;;;;;;;0.10;0.10;;;9.60;99.90;;;;;;5105590;27;20293;-50
2021/12/29 12:29:21;;;;;;;0.10;0.10;;;9.70;99.90;;;;;;5109765;27;20270;-52
2021/12/29 12:32:09;;;;;;;0.17;0.17;;;9.60;99.90;;;;;;5105864;27;20288;-52
2021/12/29 12:34:52;;;;;;;0.53;0.20;;;9.50;99.90;;;;;;5107960;27;20192;-50
2021/12/29 12:37:23;;;;;;;0.10;0.10;;;9.50;99.90;;;;;;5109080;27;20188;-54
2021/12/29 12:40:13;;;;;;;0.10;0.10;;;9.40;99.90;;;;;;5105106;27;20180;-51
2021/12/29 12:42:41;;;;;;;2.57;0.30;;;9.40;99.90;;;;;;5109775;27;20188;-51
2021/12/29 12:45:19;;;;;;;0.10;0.10;;;9.40;99.90;;;;;;5107237;27;20188;-49
2021/12/29 12:47:45;;;;;;;0.13;0.13;;;9.50;99.90;;;;;;5107599;27;20188;-57
2021/12/29 12:50:21;;;;;;;0.20;0.20;;;9.60;99.90;;;;;;5108639;27;20184;-52
2021/12/29 12:52:51;;;;;;;0.47;0.20;;;9.60;99.90;;;;;;5105150;27;20208;-48
2021/12/29 12:55:17;;;;;;;0.10;0.10;;;9.40;99.90;;;;;;5108764;27;20248;-50
2021/12/29 12:57:47;;;;;;;0.17;0.17;;;9.30;99.90;;;;;;5105760;27;20189;-52
2021/12/29 13:00:17;;;;;;;0.13;0.10;;;9.20;99.90;;;;;;5108266;27;20229;-50
2021/12/29 13:02:47;;;;;;;0.40;0.10;;;9.10;99.90;;;;;;5107006;27;20196;-49
2021/12/29 13:05:34;;;;;;;0.20;0.20;;;9.10;99.90;;;;;;5105856;27;20223;-54
2021/12/29 13:08:15;;;;;;;0.30;0.23;;;9.10;99.90;;;;;;5109072;27;20203;-55
2021/12/29 13:10:53;;;;;;;0.13;0.13;;;9.10;99.90;;;;;;5104705;27;20184;-56
2021/12/29 13:13:22;;;;;;;0.30;0.30;;;9.00;99.90;;;;;;5108115;27;20220;-50